createdAt,value
2018-10-05T00:01:49.882Z,87.20
2018-10-05T00:04:22.730Z,87.40
2018-10-05T00:06:58.101Z,87.60
2018-10-05T00:09:30.939Z,87.10
2018-10-05T00:11:59.993Z,87.40
2018-10-05T00:14:31.862Z,87.90
2018-10-05T00:17:00.625Z,87.40
2018-10-05T00:19:29.731Z,87.00
2018-10-05T00:21:58.463Z,87.40
2018-10-05T00:24:31.578Z,88.20
2018-10-05T00:27:09.448Z,88.50
2018-10-05T00:29:39.637Z,87.70
2018-10-05T00:32:08.901Z,87.80
2018-10-05T00:34:42.477Z,87.80
2018-10-05T00:37:18.279Z,87.20
2018-10-05T00:39:47.565Z,87.70
2018-10-05T00:42:36.172Z,88.80
2018-10-05T00:45:12.354Z,88.60
2018-10-05T00:47:44.583Z,88.00
2018-10-05T00:50:18.771Z,89.00
2018-10-05T00:52:50.357Z,88.80
2018-10-05T00:55:19.285Z,89.50
2018-10-05T00:57:48.389Z,89.30
2018-10-05T01:00:20.601Z,89.40
2018-10-05T01:02:50.492Z,89.20
2018-10-05T01:05:21.022Z,88.90
2018-10-05T01:07:51.223Z,89.90
2018-10-05T01:10:20.328Z,88.90
2018-10-05T01:12:49.406Z,89.60
2018-10-05T01:15:18.758Z,89.50
2018-10-05T01:17:51.589Z,89.70
2018-10-05T01:20:22.011Z,88.90
2018-10-05T01:22:56.032Z,89.70
2018-10-05T01:25:29.783Z,89.40
2018-10-05T01:28:00.881Z,89.40
2018-10-05T01:30:30.562Z,89.00
2018-10-05T01:33:00.522Z,89.20
2018-10-05T01:35:29.709Z,88.90
2018-10-05T01:37:59.612Z,88.50
2018-10-05T01:40:31.012Z,88.90
2018-10-05T01:43:01.920Z,89.30
2018-10-05T01:45:31.171Z,89.70
2018-10-05T01:48:02.975Z,89.60
2018-10-05T01:50:32.081Z,89.40
2018-10-05T01:53:04.517Z,89.70
2018-10-05T01:55:40.624Z,90.00
2018-10-05T01:58:10.175Z,89.70
2018-10-05T02:00:39.624Z,89.70
2018-10-05T02:03:11.620Z,89.40
2018-10-05T02:05:41.542Z,89.10
2018-10-05T02:08:10.749Z,89.70
2018-10-05T02:10:39.688Z,89.50
2018-10-05T02:13:09.005Z,89.20
2018-10-05T02:15:39.312Z,89.70
2018-10-05T02:18:10.912Z,88.90
2018-10-05T02:20:39.786Z,89.00
2018-10-05T02:23:08.614Z,88.80
2018-10-05T02:25:37.791Z,88.50
2018-10-05T02:28:07.117Z,89.20
2018-10-05T02:30:36.573Z,89.00
2018-10-05T02:33:06.783Z,89.80
2018-10-05T02:35:35.920Z,89.80
2018-10-05T02:38:09.199Z,89.40
2018-10-05T02:40:40.405Z,89.40
2018-10-05T02:43:09.732Z,89.40
2018-10-05T02:45:43.717Z,89.50
2018-10-05T02:48:12.616Z,89.30
2018-10-05T02:50:44.362Z,89.00
2018-10-05T02:53:17.904Z,89.80
2018-10-05T02:55:47.526Z,89.10
2018-10-05T02:58:16.891Z,89.40
2018-10-05T03:01:02.432Z,90.10
2018-10-05T03:03:39.240Z,89.60
2018-10-05T03:06:10.301Z,89.80
2018-10-05T03:08:39.589Z,89.80
2018-10-05T03:11:08.330Z,89.90
2018-10-05T03:13:38.283Z,89.30
2018-10-05T03:16:08.193Z,89.80
2018-10-05T03:18:39.918Z,89.30
2018-10-05T03:21:13.372Z,89.80
2018-10-05T03:23:44.509Z,89.90
2018-10-05T03:26:26.497Z,89.20
2018-10-05T03:28:57.941Z,89.80
2018-10-05T03:31:31.712Z,89.90
2018-10-05T03:34:02.146Z,90.20
2018-10-05T03:36:31.324Z,89.50
2018-10-05T03:39:02.649Z,89.60
2018-10-05T03:41:31.691Z,89.40
2018-10-05T03:44:01.198Z,89.50
2018-10-05T03:46:41.494Z,89.80
2018-10-05T03:49:12.226Z,89.50
2018-10-05T03:51:42.988Z,89.50
2018-10-05T03:54:20.350Z,90.10
2018-10-05T03:56:50.975Z,89.80
2018-10-05T03:59:22.148Z,89.30
2018-10-05T04:01:56.598Z,90.10
2018-10-05T04:04:28.403Z,90.00
2018-10-05T04:06:59.463Z,90.10
2018-10-05T04:09:28.466Z,90.10
2018-10-05T04:11:57.690Z,90.40
2018-10-05T04:14:28.079Z,90.60
2018-10-05T04:16:59.441Z,90.80
2018-10-05T04:19:33.773Z,90.80
2018-10-05T04:22:02.700Z,91.00
2018-10-05T04:24:35.349Z,91.20
2018-10-05T04:27:08.543Z,91.20
2018-10-05T04:29:37.714Z,91.40
2018-10-05T04:32:07.065Z,91.40
2018-10-05T04:34:37.180Z,91.50
2018-10-05T04:37:06.709Z,91.40
2018-10-05T04:39:36.260Z,91.50
2018-10-05T04:42:05.244Z,91.60
2018-10-05T04:44:39.204Z,91.50
2018-10-05T04:47:08.428Z,91.50
2018-10-05T04:49:39.158Z,92.00
2018-10-05T04:52:18.284Z,92.50
2018-10-05T04:54:47.732Z,92.40
2018-10-05T04:57:18.361Z,92.40
2018-10-05T04:59:49.443Z,92.30
2018-10-05T05:02:21.180Z,92.10
2018-10-05T05:04:50.825Z,92.30
2018-10-05T05:07:20.188Z,92.60
2018-10-05T05:09:49.020Z,92.50
2018-10-05T05:12:17.807Z,92.50
2018-10-05T05:14:51.230Z,92.60
2018-10-05T05:17:23.624Z,92.40
2018-10-05T05:19:53.480Z,92.20
2018-10-05T05:22:22.225Z,92.40
2018-10-05T05:25:01.739Z,92.80
2018-10-05T05:27:30.862Z,92.90
2018-10-05T05:30:00.356Z,92.50
2018-10-05T05:32:29.480Z,92.80
2018-10-05T05:34:58.953Z,92.70
2018-10-05T05:37:32.417Z,92.70
2018-10-05T05:40:04.312Z,92.50
2018-10-05T05:42:33.701Z,92.70
2018-10-05T05:45:02.450Z,92.80
2018-10-05T05:47:31.682Z,92.80
2018-10-05T05:50:02.185Z,93.10
2018-10-05T05:52:31.638Z,93.00
2018-10-05T05:55:00.457Z,93.00
2018-10-05T05:57:29.337Z,93.00
2018-10-05T05:59:58.399Z,93.00
2018-10-05T06:02:27.380Z,92.90
2018-10-05T06:04:57.320Z,92.60
2018-10-05T06:07:30.381Z,92.30
2018-10-05T06:10:02.563Z,92.60
2018-10-05T06:12:41.139Z,92.70
2018-10-05T06:15:13.924Z,92.90
2018-10-05T06:17:45.229Z,92.90
2018-10-05T06:20:21.500Z,92.90
2018-10-05T06:22:50.993Z,93.00
2018-10-05T06:25:22.212Z,93.10
2018-10-05T06:27:54.968Z,93.20
2018-10-05T06:30:24.465Z,93.20
2018-10-05T06:32:53.408Z,93.10
2018-10-05T06:35:25.809Z,93.30
2018-10-05T06:37:54.916Z,93.10
2018-10-05T06:40:24.985Z,93.00
2018-10-05T06:42:55.374Z,92.80
2018-10-05T06:45:24.197Z,92.90
2018-10-05T06:47:53.333Z,92.70
2018-10-05T06:50:22.382Z,92.50
2018-10-05T06:52:51.532Z,92.80
2018-10-05T06:55:26.543Z,93.00
2018-10-05T06:57:55.557Z,93.30
2018-10-05T07:00:24.332Z,93.10
2018-10-05T07:02:53.176Z,93.00
2018-10-05T07:05:22.424Z,93.10
2018-10-05T07:07:53.883Z,92.90
2018-10-05T07:10:26.122Z,92.70
2018-10-05T07:12:55.918Z,92.60
2018-10-05T07:15:29.891Z,92.40
2018-10-05T07:17:58.993Z,92.30
2018-10-05T07:20:27.943Z,92.40
2018-10-05T07:22:56.863Z,92.30
2018-10-05T07:25:27.276Z,92.10
2018-10-05T07:27:57.636Z,91.90
2018-10-05T07:30:26.513Z,91.90
2018-10-05T07:32:55.808Z,92.00
2018-10-05T07:35:25.295Z,91.90
2018-10-05T07:37:57.653Z,91.70
2018-10-05T07:40:30.164Z,91.80
2018-10-05T07:43:00.141Z,91.70
2018-10-05T07:45:34.820Z,91.70
2018-10-05T07:48:07.354Z,91.70
2018-10-05T07:50:45.692Z,91.60
2018-10-05T07:53:21.638Z,91.40
2018-10-05T07:55:53.789Z,91.40
2018-10-05T07:58:29.924Z,91.60
2018-10-05T08:01:00.675Z,91.60
2018-10-05T08:03:30.774Z,91.70
2018-10-05T08:05:59.696Z,91.70
2018-10-05T08:08:28.792Z,91.70
2018-10-05T08:11:01.996Z,91.80
2018-10-05T08:13:36.591Z,91.50
2018-10-05T08:16:07.041Z,91.70
2018-10-05T08:18:37.876Z,91.40
2018-10-05T08:21:12.850Z,91.40
2018-10-05T08:23:43.415Z,91.50
2018-10-05T08:26:12.801Z,91.70
2018-10-05T08:28:41.882Z,91.30
2018-10-05T08:31:14.207Z,92.00
2018-10-05T08:33:43.133Z,91.50
2018-10-05T08:36:16.383Z,91.50
2018-10-05T08:38:48.361Z,91.60
2018-10-05T08:41:23.129Z,91.50
2018-10-05T08:43:57.214Z,91.30
2018-10-05T08:46:27.690Z,91.20
2018-10-05T08:48:57.161Z,91.50
2018-10-05T08:51:26.208Z,91.50
2018-10-05T08:53:55.492Z,91.60
2018-10-05T08:56:25.124Z,91.30
2018-10-05T08:58:56.665Z,91.00
2018-10-05T09:01:25.943Z,90.70
2018-10-05T09:03:55.106Z,90.80
2018-10-05T09:06:24.332Z,90.60
2018-10-05T09:08:53.485Z,90.40
2018-10-05T09:11:29.436Z,90.60
2018-10-05T09:14:23.562Z,90.90
2018-10-05T09:16:56.981Z,90.70
2018-10-05T09:19:25.961Z,90.40
2018-10-05T09:21:55.100Z,90.40
2018-10-05T09:24:24.345Z,90.70
2018-10-05T09:26:53.492Z,90.60
2018-10-05T09:29:23.242Z,90.90
2018-10-05T09:31:56.138Z,90.20
2018-10-05T09:34:25.737Z,90.00
2018-10-05T09:36:54.891Z,90.40
2018-10-05T09:39:24.192Z,90.00
2018-10-05T09:41:53.310Z,90.20
2018-10-05T09:44:23.176Z,90.40
2018-10-05T09:46:55.238Z,90.60
2018-10-05T09:49:25.888Z,90.00
2018-10-05T09:51:55.474Z,90.40
2018-10-05T09:54:26.608Z,90.40
2018-10-05T09:56:55.745Z,90.40
2018-10-05T09:59:24.717Z,90.00
2018-10-05T10:01:59.842Z,89.50
2018-10-05T10:04:29.571Z,88.50
2018-10-05T10:07:00.650Z,89.80
2018-10-05T10:09:31.996Z,89.40
2018-10-05T10:12:00.768Z,89.30
2018-10-05T10:14:29.722Z,89.40
2018-10-05T10:16:59.195Z,88.90
2018-10-05T10:19:28.300Z,87.90
2018-10-05T10:21:57.499Z,88.60
2018-10-05T10:24:26.901Z,87.90
2018-10-05T10:27:03.453Z,88.70
2018-10-05T10:29:36.160Z,89.00
2018-10-05T10:32:05.429Z,87.90
2018-10-05T10:34:34.839Z,87.40
2018-10-05T10:37:07.098Z,87.90
2018-10-05T10:39:36.222Z,86.60
2018-10-05T10:42:09.755Z,86.50
2018-10-05T10:44:39.148Z,85.40
2018-10-05T10:47:08.284Z,86.60
2018-10-05T10:49:38.084Z,86.80
2018-10-05T10:52:07.448Z,85.70
2018-10-05T10:54:38.548Z,86.70
2018-10-05T10:57:15.761Z,86.10
2018-10-05T10:59:45.153Z,85.20
2018-10-05T11:02:19.910Z,85.60
2018-10-05T11:04:52.282Z,85.30
2018-10-05T11:07:22.516Z,85.20
2018-10-05T11:09:53.352Z,85.50
2018-10-05T11:12:22.137Z,84.10
2018-10-05T11:14:59.628Z,84.30
2018-10-05T11:17:28.797Z,84.60
2018-10-05T11:20:01.607Z,84.00
2018-10-05T11:22:38.377Z,84.60
2018-10-05T11:25:07.540Z,84.50
2018-10-05T11:27:36.684Z,84.00
2018-10-05T11:30:08.838Z,84.60
2018-10-05T11:32:38.093Z,84.40
2018-10-05T11:35:07.351Z,84.60
2018-10-05T11:37:36.178Z,83.30
2018-10-05T11:40:05.747Z,83.30
2018-10-05T11:42:34.690Z,80.20
2018-10-05T11:45:03.836Z,80.10
2018-10-05T11:47:32.868Z,79.90
2018-10-05T11:50:01.907Z,79.30
2018-10-05T11:52:34.637Z,79.10
2018-10-05T11:55:03.865Z,77.40
2018-10-05T11:57:33.127Z,76.40
2018-10-05T12:00:02.516Z,74.10
2018-10-05T12:02:38.429Z,76.10
2018-10-05T12:05:08.287Z,77.50
2018-10-05T12:07:37.085Z,76.40
2018-10-05T12:10:06.199Z,74.70
2018-10-05T12:12:35.972Z,75.50
2018-10-05T12:15:04.817Z,74.00
2018-10-05T12:17:34.049Z,75.50
2018-10-05T12:20:02.992Z,73.40
2018-10-05T12:22:35.931Z,73.90
2018-10-05T12:25:08.638Z,72.40
2018-10-05T12:27:40.369Z,73.30
2018-10-05T12:30:14.207Z,72.30
2018-10-05T12:32:43.299Z,73.30
2018-10-05T12:35:15.897Z,73.60
2018-10-05T12:37:45.705Z,72.60
2018-10-05T12:40:15.530Z,72.20
2018-10-05T12:42:44.775Z,73.10
2018-10-05T12:45:13.969Z,72.80
2018-10-05T12:47:43.633Z,73.00
2018-10-05T12:50:14.328Z,72.30
2018-10-05T12:52:44.876Z,71.40
2018-10-05T12:55:15.032Z,71.40
2018-10-05T12:57:45.989Z,68.90
2018-10-05T13:00:15.035Z,70.10
2018-10-05T13:02:45.388Z,68.70
2018-10-05T13:05:15.449Z,68.20
2018-10-05T13:07:46.528Z,68.10
2018-10-05T13:10:19.215Z,68.50
2018-10-05T13:12:49.590Z,69.90
2018-10-05T13:15:18.537Z,69.80
2018-10-05T13:17:47.874Z,70.20
2018-10-05T13:20:17.141Z,69.10
2018-10-05T13:22:52.935Z,68.20
2018-10-05T13:25:22.324Z,67.60
2018-10-05T13:27:53.306Z,68.70
2018-10-05T13:30:22.593Z,68.50
2018-10-05T13:32:51.612Z,69.20
2018-10-05T13:35:20.564Z,70.00
2018-10-05T13:37:49.628Z,71.60
2018-10-05T13:40:19.699Z,71.70
2018-10-05T13:42:49.215Z,70.10
2018-10-05T13:45:18.093Z,69.90
2018-10-05T13:47:49.317Z,68.40
2018-10-05T13:50:18.103Z,67.30
2018-10-05T13:52:47.257Z,68.10
2018-10-05T13:55:20.835Z,67.70
2018-10-05T13:57:52.211Z,67.20
2018-10-05T14:00:27.436Z,67.60
2018-10-05T14:02:56.481Z,66.60
2018-10-05T14:05:25.571Z,67.70
2018-10-05T14:07:54.740Z,66.80
2018-10-05T14:10:23.619Z,68.30
2018-10-05T14:12:53.352Z,67.30
2018-10-05T14:15:26.691Z,67.80
2018-10-05T14:17:55.820Z,68.30
2018-10-05T14:20:25.456Z,69.70
2018-10-05T14:22:54.686Z,69.60
2018-10-05T14:25:24.500Z,69.50
2018-10-05T14:27:53.596Z,67.40
2018-10-05T14:30:24.667Z,66.90
2018-10-05T14:32:54.184Z,65.00
2018-10-05T14:35:23.345Z,64.70
2018-10-05T14:37:52.599Z,64.90
2018-10-05T14:40:22.049Z,66.30
2018-10-05T14:42:51.637Z,65.80
2018-10-05T14:45:21.260Z,64.60
2018-10-05T14:47:50.811Z,65.20
2018-10-05T14:50:19.730Z,64.30
2018-10-05T14:52:48.812Z,64.60
2018-10-05T14:55:22.820Z,65.30
2018-10-05T14:57:51.623Z,64.80
2018-10-05T15:00:20.878Z,66.10
2018-10-05T15:02:49.900Z,65.50
2018-10-05T15:05:19.477Z,65.40
2018-10-05T15:07:48.658Z,64.60
2018-10-05T15:10:17.831Z,64.20
2018-10-05T15:12:48.521Z,64.80
2018-10-05T15:15:17.961Z,64.60
2018-10-05T15:17:50.909Z,65.40
2018-10-05T15:20:19.978Z,65.30
2018-10-05T15:22:49.356Z,65.20
2018-10-05T15:25:18.372Z,65.70
2018-10-05T15:27:48.868Z,67.10
2018-10-05T15:30:18.005Z,66.60
2018-10-05T15:32:47.349Z,66.20
2018-10-05T15:35:16.478Z,65.90
2018-10-05T15:37:45.773Z,66.50
2018-10-05T15:40:16.840Z,66.30
2018-10-05T15:42:48.508Z,66.40
2018-10-05T15:45:17.989Z,66.10
2018-10-05T15:47:50.355Z,66.80
2018-10-05T15:50:19.618Z,66.90
2018-10-05T15:52:49.034Z,67.10
2018-10-05T15:55:19.069Z,66.70
2018-10-05T15:57:49.175Z,67.00
2018-10-05T16:00:17.982Z,66.70
2018-10-05T16:02:46.727Z,66.60
2018-10-05T16:05:16.027Z,66.50
2018-10-05T16:07:44.874Z,66.40
2018-10-05T16:10:13.864Z,67.50
2018-10-05T16:12:46.276Z,67.20
2018-10-05T16:15:18.142Z,66.00
2018-10-05T16:17:47.008Z,66.50
2018-10-05T16:20:16.378Z,66.80
2018-10-05T16:22:45.507Z,69.00
2018-10-05T16:25:16.179Z,69.50
2018-10-05T16:27:45.652Z,69.50
2018-10-05T16:30:18.875Z,70.40
2018-10-05T16:32:47.833Z,71.30
2018-10-05T16:35:17.001Z,72.40
2018-10-05T16:37:46.160Z,70.20
2018-10-05T16:40:15.832Z,70.80
2018-10-05T16:42:53.640Z,71.30
2018-10-05T16:45:22.638Z,71.50
2018-10-05T16:47:52.663Z,71.90
2018-10-05T16:50:24.931Z,72.20
2018-10-05T16:52:54.110Z,72.70
2018-10-05T16:55:28.412Z,73.30
2018-10-05T16:57:57.482Z,73.30
2018-10-05T17:00:30.049Z,73.70
2018-10-05T17:02:59.073Z,74.20
2018-10-05T17:05:27.848Z,75.00
2018-10-05T17:07:58.375Z,75.30
2018-10-05T17:10:30.934Z,75.40
2018-10-05T17:13:00.242Z,75.70
2018-10-05T17:15:29.711Z,77.40
2018-10-05T17:17:59.040Z,77.70
2018-10-05T17:20:41.178Z,78.70
2018-10-05T17:23:10.548Z,78.00
2018-10-05T17:25:40.960Z,78.10
2018-10-05T17:28:10.793Z,77.50
2018-10-05T17:30:40.696Z,77.50
2018-10-05T17:33:09.777Z,78.20
2018-10-05T17:35:38.840Z,79.10
2018-10-05T17:38:07.894Z,79.40
2018-10-05T17:40:37.901Z,79.70
2018-10-05T17:43:07.797Z,79.90
2018-10-05T17:45:41.542Z,79.90
2018-10-05T17:48:10.401Z,79.80
2018-10-05T17:50:39.577Z,80.40
2018-10-05T17:53:09.119Z,80.20
2018-10-05T17:55:38.060Z,80.60
2018-10-05T17:58:07.265Z,80.90
2018-10-05T18:00:40.413Z,80.10
2018-10-05T18:03:11.681Z,80.50
2018-10-05T18:05:40.892Z,80.60
2018-10-05T18:08:10.082Z,81.20
2018-10-05T18:10:39.380Z,81.80
2018-10-05T18:13:08.623Z,81.90
2018-10-05T18:15:39.209Z,82.00
2018-10-05T18:18:12.184Z,82.50
2018-10-05T18:20:41.506Z,81.90
2018-10-05T18:23:10.646Z,82.00
2018-10-05T18:25:39.648Z,82.50
2018-10-05T18:28:09.045Z,80.30
2018-10-05T18:30:38.215Z,80.50
2018-10-05T18:33:07.145Z,80.20
2018-10-05T18:35:36.133Z,80.10
2018-10-05T18:38:04.934Z,80.10
2018-10-05T18:40:34.205Z,80.40
2018-10-05T18:43:03.507Z,80.40
2018-10-05T18:45:39.476Z,80.30
2018-10-05T18:48:10.248Z,80.20
2018-10-05T18:50:42.953Z,80.30
2018-10-05T18:53:14.548Z,80.50
2018-10-05T18:55:46.292Z,80.40
2018-10-05T18:58:15.404Z,80.30
2018-10-05T19:00:44.168Z,80.00
2018-10-05T19:03:12.971Z,80.50
2018-10-05T19:05:42.117Z,80.40
2018-10-05T19:08:15.841Z,80.00
2018-10-05T19:10:49.473Z,80.00
2018-10-05T19:13:18.510Z,80.40
2018-10-05T19:15:48.800Z,80.80
2018-10-05T19:18:17.847Z,81.70
2018-10-05T19:20:47.104Z,81.20
2018-10-05T19:23:18.170Z,81.30
2018-10-05T19:25:48.175Z,81.50
2018-10-05T19:28:25.703Z,81.70
2018-10-05T19:30:55.650Z,81.90
2018-10-05T19:33:25.113Z,81.20
2018-10-05T19:35:54.583Z,81.40
2018-10-05T19:38:23.673Z,81.60
2018-10-05T19:40:53.272Z,81.80
2018-10-05T19:43:26.255Z,81.80
2018-10-05T19:45:59.934Z,82.00
2018-10-05T19:48:30.698Z,83.00
2018-10-05T19:51:00.700Z,83.30
2018-10-05T19:53:30.013Z,84.10
2018-10-05T19:55:59.950Z,84.40
2018-10-05T19:58:29.573Z,84.10
2018-10-05T20:00:59.070Z,84.50
2018-10-05T20:03:36.182Z,84.70
2018-10-05T20:06:06.883Z,84.60
2018-10-05T20:08:36.269Z,84.90
2018-10-05T20:11:07.149Z,85.00
2018-10-05T20:13:36.215Z,84.80
2018-10-05T20:16:05.794Z,85.50
2018-10-05T20:18:34.816Z,86.10
2018-10-05T20:21:03.996Z,85.50
2018-10-05T20:23:32.764Z,84.80
2018-10-05T20:26:07.440Z,84.90
2018-10-05T20:28:36.448Z,85.70
2018-10-05T20:31:05.757Z,85.10
2018-10-05T20:33:35.431Z,85.40
2018-10-05T20:36:06.271Z,85.40
2018-10-05T20:38:35.419Z,86.10
2018-10-05T20:41:06.145Z,86.80
2018-10-05T20:43:35.292Z,86.80
2018-10-05T20:46:04.319Z,86.10
2018-10-05T20:48:33.177Z,87.10
2018-10-05T20:51:04.432Z,86.40
2018-10-05T20:53:33.192Z,86.30
2018-10-05T20:56:02.453Z,85.60
2018-10-05T20:58:31.208Z,86.70
2018-10-05T21:01:00.300Z,86.70
2018-10-05T21:03:31.208Z,86.70
2018-10-05T21:06:02.866Z,86.70
2018-10-05T21:08:32.009Z,86.60
2018-10-05T21:11:01.270Z,87.20
2018-10-05T21:13:30.984Z,87.70
2018-10-05T21:16:00.492Z,87.40
2018-10-05T21:18:30.123Z,87.70
2018-10-05T21:21:00.584Z,87.90
2018-10-05T21:23:30.776Z,88.10
2018-10-05T21:25:59.556Z,87.70
2018-10-05T21:28:28.618Z,88.50
2018-10-05T21:30:57.605Z,88.60
2018-10-05T21:33:30.889Z,88.70
2018-10-05T21:36:03.858Z,89.00
2018-10-05T21:38:33.204Z,89.10
2018-10-05T21:41:02.318Z,88.80
2018-10-05T21:43:31.914Z,89.10
2018-10-05T21:46:01.341Z,89.60
2018-10-05T21:48:30.788Z,90.30
2018-10-05T21:50:59.763Z,90.70
2018-10-05T21:53:29.698Z,90.30
2018-10-05T21:55:58.764Z,90.50
2018-10-05T21:58:27.842Z,90.00
2018-10-05T22:01:00.609Z,90.50
2018-10-05T22:03:31.300Z,90.40
2018-10-05T22:06:01.680Z,89.60
2018-10-05T22:08:33.310Z,90.10
2018-10-05T22:11:02.351Z,90.20
2018-10-05T22:13:31.170Z,90.20
2018-10-05T22:16:00.365Z,90.20
2018-10-05T22:18:32.571Z,90.30
2018-10-05T22:21:01.353Z,90.40
2018-10-05T22:23:31.904Z,90.20
2018-10-05T22:26:01.845Z,89.70
2018-10-05T22:28:31.384Z,90.10
2018-10-05T22:31:00.552Z,90.00
2018-10-05T22:33:29.695Z,90.10
2018-10-05T22:35:58.885Z,89.40
2018-10-05T22:38:28.714Z,89.50
2018-10-05T22:40:57.461Z,90.30
2018-10-05T22:43:26.824Z,90.20
2018-10-05T22:45:55.800Z,90.00
2018-10-05T22:48:24.572Z,90.10
2018-10-05T22:50:54.637Z,90.30
2018-10-05T22:53:25.532Z,90.30
2018-10-05T22:55:54.605Z,90.40
2018-10-05T22:58:23.901Z,90.20
2018-10-05T23:00:52.940Z,90.40
2018-10-05T23:03:22.848Z,90.10
2018-10-05T23:05:54.141Z,90.20
2018-10-05T23:08:25.698Z,90.10
2018-10-05T23:10:55.129Z,90.30
2018-10-05T23:13:24.100Z,90.20
2018-10-05T23:15:53.023Z,90.10
2018-10-05T23:18:22.262Z,90.10
2018-10-05T23:20:51.939Z,90.10
2018-10-05T23:23:24.006Z,90.10
2018-10-05T23:25:53.288Z,89.90
2018-10-05T23:28:22.032Z,90.50
2018-10-05T23:30:51.293Z,90.40
2018-10-05T23:33:20.459Z,90.50
2018-10-05T23:35:51.565Z,90.80
2018-10-05T23:38:20.654Z,90.50
2018-10-05T23:40:49.837Z,91.30
2018-10-05T23:43:19.845Z,91.50
2018-10-05T23:45:49.048Z,91.40
2018-10-05T23:48:18.319Z,91.10
2018-10-05T23:50:49.592Z,91.00
2018-10-05T23:53:22.055Z,90.80
2018-10-05T23:55:51.028Z,90.70
2018-10-05T23:58:20.766Z,90.70
